Maple Grove, Washington
Current Conditions -  °F | °C
As of 7:53 AM on Friday 19 Dec 2014 (Local Time) from KCLM Reporting Station
Clear Clear  
Wind Chill: 36°   Ceiling: Unl
Heat Index: 41°   Visibility: 10mi
Dew Point: 39°   Wind: 7mph
Humidity: 93%   Direction: 220°SW
Pressure: 29.82"   Gusts: NA
Location:  48.0203°N, 123.478°W
Report Text: KCLM 191553Z AUTO 22006KT 10SM CLR 05/04 A2982 RMK AO2 SLP100 T00500039 TSNO
Loading
Personal Weather Stations






























Interactive Weather Map New forecast layout! Learn more

10-Day Weather Forecast

Advertisements
Track Severe Weather on mobile